sensor_id;sensor_type;location;lat;lon;timestamp;P1;durP1;ratioP1;P2;durP2;ratioP2
48006;SDS011;33771;48.180;11.400;2022-09-27T00:00:24;5.20;;;3.38;;
48006;SDS011;33771;48.180;11.400;2022-09-27T00:02:49;3.42;;;1.45;;
48006;SDS011;33771;48.180;11.400;2022-09-27T00:05:15;2.08;;;1.55;;
48006;SDS011;33771;48.180;11.400;2022-09-27T00:07:42;2.70;;;1.73;;
48006;SDS011;33771;48.180;11.400;2022-09-27T00:10:08;2.33;;;1.65;;
48006;SDS011;33771;48.180;11.400;2022-09-27T00:12:34;2.78;;;1.70;;
48006;SDS011;33771;48.180;11.400;2022-09-27T00:15:00;5.30;;;1.80;;
48006;SDS011;33771;48.180;11.400;2022-09-27T00:17:26;2.50;;;1.80;;
48006;SDS011;33771;48.180;11.400;2022-09-27T00:19:52;3.50;;;2.00;;
48006;SDS011;33771;48.180;11.400;2022-09-27T00:22:20;2.35;;;1.90;;
48006;SDS011;33771;48.180;11.400;2022-09-27T00:24:46;3.17;;;1.73;;
48006;SDS011;33771;48.180;11.400;2022-09-27T00:27:12;3.55;;;1.83;;
48006;SDS011;33771;48.180;11.400;2022-09-27T00:29:37;4.03;;;1.88;;
48006;SDS011;33771;48.180;11.400;2022-09-27T00:32:03;2.47;;;1.73;;
48006;SDS011;33771;48.180;11.400;2022-09-27T00:34:28;5.07;;;2.17;;
48006;SDS011;33771;48.180;11.400;2022-09-27T00:36:54;2.42;;;1.67;;
48006;SDS011;33771;48.180;11.400;2022-09-27T00:39:19;3.75;;;2.25;;
48006;SDS011;33771;48.180;11.400;2022-09-27T00:41:45;4.28;;;1.90;;
48006;SDS011;33771;48.180;11.400;2022-09-27T00:46:50;2.92;;;1.95;;
48006;SDS011;33771;48.180;11.400;2022-09-27T00:49:28;7.97;;;1.88;;
48006;SDS011;33771;48.180;11.400;2022-09-27T00:54:41;3.08;;;2.08;;
48006;SDS011;33771;48.180;11.400;2022-09-27T00:57:09;4.53;;;2.40;;
48006;SDS011;33771;48.180;11.400;2022-09-27T00:59:39;3.30;;;2.30;;
48006;SDS011;33771;48.180;11.400;2022-09-27T01:02:08;4.20;;;1.92;;
48006;SDS011;33771;48.180;11.400;2022-09-27T01:04:34;2.95;;;2.10;;
48006;SDS011;33771;48.180;11.400;2022-09-27T01:07:02;2.72;;;1.95;;
48006;SDS011;33771;48.180;11.400;2022-09-27T01:09:28;3.65;;;2.13;;
48006;SDS011;33771;48.180;11.400;2022-09-27T01:12:10;6.03;;;2.45;;
48006;SDS011;33771;48.180;11.400;2022-09-27T01:20:14;5.32;;;2.25;;
48006;SDS011;33771;48.180;11.400;2022-09-27T01:23:10;4.50;;;2.20;;
48006;SDS011;33771;48.180;11.400;2022-09-27T01:26:08;3.65;;;2.17;;
48006;SDS011;33771;48.180;11.400;2022-09-27T01:28:55;3.90;;;2.33;;
48006;SDS011;33771;48.180;11.400;2022-09-27T01:31:48;4.43;;;2.15;;
48006;SDS011;33771;48.180;11.400;2022-09-27T01:37:10;2.72;;;2.17;;
48006;SDS011;33771;48.180;11.400;2022-09-27T01:39:51;2.80;;;1.90;;
48006;SDS011;33771;48.180;11.400;2022-09-27T01:44:56;3.65;;;1.95;;
48006;SDS011;33771;48.180;11.400;2022-09-27T01:47:30;5.03;;;2.40;;
48006;SDS011;33771;48.180;11.400;2022-09-27T01:52:36;3.05;;;2.00;;
48006;SDS011;33771;48.180;11.400;2022-09-27T01:55:11;8.23;;;2.42;;
48006;SDS011;33771;48.180;11.400;2022-09-27T01:57:41;3.80;;;2.00;;
48006;SDS011;33771;48.180;11.400;2022-09-27T02:00:11;3.65;;;2.17;;
48006;SDS011;33771;48.180;11.400;2022-09-27T02:02:45;2.90;;;2.00;;
48006;SDS011;33771;48.180;11.400;2022-09-27T02:05:17;3.42;;;2.33;;
48006;SDS011;33771;48.180;11.400;2022-09-27T02:07:50;4.80;;;2.38;;
48006;SDS011;33771;48.180;11.400;2022-09-27T02:10:22;3.95;;;2.15;;
48006;SDS011;33771;48.180;11.400;2022-09-27T02:18:37;2.97;;;2.05;;
48006;SDS011;33771;48.180;11.400;2022-09-27T02:21:15;3.67;;;1.98;;
48006;SDS011;33771;48.180;11.400;2022-09-27T02:23:45;2.97;;;1.83;;
48006;SDS011;33771;48.180;11.400;2022-09-27T02:26:17;2.72;;;2.10;;
48006;SDS011;33771;48.180;11.400;2022-09-27T02:31:16;4.90;;;2.20;;
48006;SDS011;33771;48.180;11.400;2022-09-27T02:33:46;4.43;;;2.00;;
48006;SDS011;33771;48.180;11.400;2022-09-27T02:36:19;3.20;;;2.20;;
48006;SDS011;33771;48.180;11.400;2022-09-27T02:38:45;4.85;;;2.10;;
48006;SDS011;33771;48.180;11.400;2022-09-27T02:41:14;4.65;;;2.10;;
48006;SDS011;33771;48.180;11.400;2022-09-27T02:43:42;2.90;;;2.20;;
48006;SDS011;33771;48.180;11.400;2022-09-27T03:00:47;3.65;;;2.80;;
48006;SDS011;33771;48.180;11.400;2022-09-27T03:03:26;4.22;;;2.95;;
48006;SDS011;33771;48.180;11.400;2022-09-27T03:06:04;4.15;;;3.08;;
48006;SDS011;33771;48.180;11.400;2022-09-27T03:08:35;4.10;;;2.63;;
48006;SDS011;33771;48.180;11.400;2022-09-27T03:11:02;4.40;;;3.00;;
48006;SDS011;33771;48.180;11.400;2022-09-27T03:13:28;9.98;;;2.90;;
48006;SDS011;33771;48.180;11.400;2022-09-27T03:15:54;8.50;;;2.85;;
48006;SDS011;33771;48.180;11.400;2022-09-27T03:18:19;6.50;;;3.05;;
48006;SDS011;33771;48.180;11.400;2022-09-27T03:20:45;4.05;;;3.00;;
48006;SDS011;33771;48.180;11.400;2022-09-27T03:23:10;6.05;;;3.05;;
48006;SDS011;33771;48.180;11.400;2022-09-27T03:25:36;7.85;;;3.08;;
48006;SDS011;33771;48.180;11.400;2022-09-27T03:28:02;6.07;;;3.05;;
48006;SDS011;33771;48.180;11.400;2022-09-27T03:30:27;7.40;;;2.90;;
48006;SDS011;33771;48.180;11.400;2022-09-27T03:32:53;4.83;;;3.30;;
48006;SDS011;33771;48.180;11.400;2022-09-27T03:35:18;7.85;;;2.88;;
48006;SDS011;33771;48.180;11.400;2022-09-27T03:37:44;4.20;;;2.72;;
48006;SDS011;33771;48.180;11.400;2022-09-27T03:40:11;7.65;;;3.20;;
48006;SDS011;33771;48.180;11.400;2022-09-27T03:42:37;6.78;;;2.92;;
48006;SDS011;33771;48.180;11.400;2022-09-27T03:45:03;5.95;;;3.08;;
48006;SDS011;33771;48.180;11.400;2022-09-27T03:47:29;4.68;;;2.70;;
48006;SDS011;33771;48.180;11.400;2022-09-27T03:49:54;4.82;;;2.90;;
48006;SDS011;33771;48.180;11.400;2022-09-27T03:52:20;5.00;;;3.15;;
48006;SDS011;33771;48.180;11.400;2022-09-27T03:54:45;4.93;;;3.20;;
48006;SDS011;33771;48.180;11.400;2022-09-27T03:57:11;5.43;;;3.13;;
48006;SDS011;33771;48.180;11.400;2022-09-27T03:59:37;4.78;;;2.88;;
48006;SDS011;33771;48.180;11.400;2022-09-27T04:02:03;4.43;;;2.33;;
48006;SDS011;33771;48.180;11.400;2022-09-27T04:04:28;3.83;;;2.38;;
48006;SDS011;33771;48.180;11.400;2022-09-27T04:06:54;3.42;;;2.20;;
48006;SDS011;33771;48.180;11.400;2022-09-27T04:09:21;3.85;;;2.00;;
48006;SDS011;33771;48.180;11.400;2022-09-27T04:11:46;3.03;;;2.20;;
48006;SDS011;33771;48.180;11.400;2022-09-27T04:14:13;3.45;;;2.13;;
48006;SDS011;33771;48.180;11.400;2022-09-27T04:16:38;2.95;;;2.17;;
48006;SDS011;33771;48.180;11.400;2022-09-27T04:19:04;4.10;;;2.55;;
48006;SDS011;33771;48.180;11.400;2022-09-27T04:21:31;5.83;;;3.20;;
48006;SDS011;33771;48.180;11.400;2022-09-27T04:23:57;3.35;;;2.28;;
48006;SDS011;33771;48.180;11.400;2022-09-27T04:26:23;2.50;;;1.90;;
48006;SDS011;33771;48.180;11.400;2022-09-27T04:28:49;4.40;;;1.80;;
48006;SDS011;33771;48.180;11.400;2022-09-27T04:31:16;2.47;;;1.80;;
48006;SDS011;33771;48.180;11.400;2022-09-27T04:33:42;3.35;;;1.80;;
48006;SDS011;33771;48.180;11.400;2022-09-27T04:36:08;2.85;;;1.85;;
48006;SDS011;33771;48.180;11.400;2022-09-27T04:38:52;2.05;;;1.58;;
48006;SDS011;33771;48.180;11.400;2022-09-27T04:41:18;3.35;;;1.70;;
48006;SDS011;33771;48.180;11.400;2022-09-27T04:43:45;2.78;;;1.65;;
48006;SDS011;33771;48.180;11.400;2022-09-27T04:46:11;2.53;;;1.75;;
48006;SDS011;33771;48.180;11.400;2022-09-27T04:48:37;2.50;;;1.80;;
48006;SDS011;33771;48.180;11.400;2022-09-27T04:51:03;5.10;;;2.25;;
48006;SDS011;33771;48.180;11.400;2022-09-27T04:53:30;2.10;;;1.50;;
48006;SDS011;33771;48.180;11.400;2022-09-27T04:55:55;3.65;;;1.42;;
48006;SDS011;33771;48.180;11.400;2022-09-27T04:58:21;2.72;;;1.50;;
48006;SDS011;33771;48.180;11.400;2022-09-27T05:00:47;2.00;;;1.40;;
48006;SDS011;33771;48.180;11.400;2022-09-27T05:03:16;2.25;;;1.30;;
48006;SDS011;33771;48.180;11.400;2022-09-27T05:05:43;2.10;;;1.33;;
48006;SDS011;33771;48.180;11.400;2022-09-27T05:08:09;1.67;;;1.23;;
48006;SDS011;33771;48.180;11.400;2022-09-27T05:10:34;2.20;;;1.60;;
48006;SDS011;33771;48.180;11.400;2022-09-27T05:13:00;2.17;;;1.25;;
48006;SDS011;33771;48.180;11.400;2022-09-27T05:15:26;2.15;;;1.30;;
48006;SDS011;33771;48.180;11.400;2022-09-27T05:17:51;2.30;;;1.60;;
48006;SDS011;33771;48.180;11.400;2022-09-27T05:20:18;1.80;;;1.20;;
48006;SDS011;33771;48.180;11.400;2022-09-27T05:22:44;2.37;;;1.27;;
48006;SDS011;33771;48.180;11.400;2022-09-27T05:25:10;2.67;;;1.30;;
48006;SDS011;33771;48.180;11.400;2022-09-27T05:27:36;1.23;;;1.10;;
48006;SDS011;33771;48.180;11.400;2022-09-27T05:30:02;1.63;;;1.20;;
48006;SDS011;33771;48.180;11.400;2022-09-27T05:32:28;2.33;;;1.20;;
48006;SDS011;33771;48.180;11.400;2022-09-27T05:34:54;1.53;;;1.00;;
48006;SDS011;33771;48.180;11.400;2022-09-27T05:37:20;3.17;;;1.30;;
48006;SDS011;33771;48.180;11.400;2022-09-27T05:39:46;2.53;;;1.20;;
48006;SDS011;33771;48.180;11.400;2022-09-27T05:42:11;1.77;;;1.03;;
48006;SDS011;33771;48.180;11.400;2022-09-27T05:44:38;1.60;;;1.00;;
48006;SDS011;33771;48.180;11.400;2022-09-27T05:47:04;2.80;;;1.20;;
48006;SDS011;33771;48.180;11.400;2022-09-27T05:49:30;4.43;;;0.90;;
48006;SDS011;33771;48.180;11.400;2022-09-27T05:51:56;1.07;;;0.87;;
48006;SDS011;33771;48.180;11.400;2022-09-27T05:54:22;1.70;;;1.00;;
48006;SDS011;33771;48.180;11.400;2022-09-27T05:56:48;3.07;;;1.00;;
48006;SDS011;33771;48.180;11.400;2022-09-27T05:59:13;1.90;;;1.07;;
48006;SDS011;33771;48.180;11.400;2022-09-27T06:01:39;4.20;;;1.03;;
48006;SDS011;33771;48.180;11.400;2022-09-27T06:04:05;3.28;;;1.00;;
48006;SDS011;33771;48.180;11.400;2022-09-27T06:06:30;2.27;;;0.90;;
48006;SDS011;33771;48.180;11.400;2022-09-27T06:08:58;1.30;;;0.90;;
48006;SDS011;33771;48.180;11.400;2022-09-27T06:11:25;1.65;;;1.13;;
48006;SDS011;33771;48.180;11.400;2022-09-27T06:13:51;2.38;;;0.93;;
48006;SDS011;33771;48.180;11.400;2022-09-27T06:16:17;2.17;;;1.00;;
48006;SDS011;33771;48.180;11.400;2022-09-27T06:18:42;2.43;;;0.90;;
48006;SDS011;33771;48.180;11.400;2022-09-27T06:21:08;2.27;;;0.97;;
48006;SDS011;33771;48.180;11.400;2022-09-27T06:23:33;3.63;;;1.10;;
48006;SDS011;33771;48.180;11.400;2022-09-27T06:26:00;3.28;;;1.00;;
48006;SDS011;33771;48.180;11.400;2022-09-27T06:28:31;1.75;;;1.00;;
48006;SDS011;33771;48.180;11.400;2022-09-27T06:30:58;2.55;;;1.10;;
48006;SDS011;33771;48.180;11.400;2022-09-27T06:33:25;0.98;;;0.80;;
48006;SDS011;33771;48.180;11.400;2022-09-27T06:35:54;2.47;;;1.10;;
48006;SDS011;33771;48.180;11.400;2022-09-27T06:38:19;4.85;;;1.40;;
48006;SDS011;33771;48.180;11.400;2022-09-27T06:40:45;4.28;;;1.05;;
48006;SDS011;33771;48.180;11.400;2022-09-27T06:43:12;1.48;;;0.90;;
48006;SDS011;33771;48.180;11.400;2022-09-27T06:45:39;1.58;;;0.90;;
48006;SDS011;33771;48.180;11.400;2022-09-27T06:48:07;2.20;;;1.10;;
48006;SDS011;33771;48.180;11.400;2022-09-27T06:50:35;2.47;;;1.20;;
48006;SDS011;33771;48.180;11.400;2022-09-27T06:53:04;3.47;;;1.13;;
48006;SDS011;33771;48.180;11.400;2022-09-27T06:55:30;5.57;;;1.00;;
48006;SDS011;33771;48.180;11.400;2022-09-27T06:57:57;1.95;;;1.02;;
48006;SDS011;33771;48.180;11.400;2022-09-27T07:00:42;4.30;;;1.75;;
48006;SDS011;33771;48.180;11.400;2022-09-27T07:03:10;7.97;;;1.15;;
48006;SDS011;33771;48.180;11.400;2022-09-27T07:05:38;3.63;;;1.20;;
48006;SDS011;33771;48.180;11.400;2022-09-27T07:08:05;3.38;;;1.20;;
48006;SDS011;33771;48.180;11.400;2022-09-27T07:10:33;4.38;;;1.25;;
48006;SDS011;33771;48.180;11.400;2022-09-27T07:13:09;5.40;;;1.30;;
48006;SDS011;33771;48.180;11.400;2022-09-27T07:15:39;3.65;;;1.52;;
48006;SDS011;33771;48.180;11.400;2022-09-27T07:18:06;5.88;;;1.20;;
48006;SDS011;33771;48.180;11.400;2022-09-27T07:20:33;3.33;;;1.17;;
48006;SDS011;33771;48.180;11.400;2022-09-27T07:23:03;6.13;;;1.70;;
48006;SDS011;33771;48.180;11.400;2022-09-27T07:25:29;2.30;;;1.17;;
48006;SDS011;33771;48.180;11.400;2022-09-27T07:27:59;2.72;;;1.35;;
48006;SDS011;33771;48.180;11.400;2022-09-27T07:30:26;2.75;;;1.27;;
48006;SDS011;33771;48.180;11.400;2022-09-27T07:32:55;2.85;;;1.10;;
48006;SDS011;33771;48.180;11.400;2022-09-27T07:35:23;3.58;;;1.30;;
48006;SDS011;33771;48.180;11.400;2022-09-27T07:37:48;2.88;;;1.23;;
48006;SDS011;33771;48.180;11.400;2022-09-27T07:40:14;3.05;;;1.17;;
48006;SDS011;33771;48.180;11.400;2022-09-27T07:42:39;1.77;;;0.90;;
48006;SDS011;33771;48.180;11.400;2022-09-27T07:45:06;1.90;;;0.80;;
48006;SDS011;33771;48.180;11.400;2022-09-27T07:47:32;1.65;;;0.80;;
48006;SDS011;33771;48.180;11.400;2022-09-27T07:49:57;2.15;;;0.77;;
48006;SDS011;33771;48.180;11.400;2022-09-27T07:52:23;2.53;;;0.85;;
48006;SDS011;33771;48.180;11.400;2022-09-27T07:54:49;1.63;;;0.80;;
48006;SDS011;33771;48.180;11.400;2022-09-27T07:57:14;2.70;;;0.90;;
48006;SDS011;33771;48.180;11.400;2022-09-27T07:59:40;3.30;;;0.93;;
48006;SDS011;33771;48.180;11.400;2022-09-27T08:02:12;1.52;;;0.80;;
48006;SDS011;33771;48.180;11.400;2022-09-27T08:04:39;2.03;;;0.73;;
48006;SDS011;33771;48.180;11.400;2022-09-27T08:07:07;5.80;;;0.77;;
48006;SDS011;33771;48.180;11.400;2022-09-27T08:09:34;0.82;;;0.60;;
48006;SDS011;33771;48.180;11.400;2022-09-27T08:11:59;1.40;;;0.70;;
48006;SDS011;33771;48.180;11.400;2022-09-27T08:14:25;1.55;;;0.70;;
48006;SDS011;33771;48.180;11.400;2022-09-27T08:16:50;1.57;;;0.60;;
48006;SDS011;33771;48.180;11.400;2022-09-27T08:19:16;1.00;;;0.60;;
48006;SDS011;33771;48.180;11.400;2022-09-27T08:21:43;0.90;;;0.60;;
48006;SDS011;33771;48.180;11.400;2022-09-27T08:24:08;1.70;;;0.70;;
48006;SDS011;33771;48.180;11.400;2022-09-27T08:26:35;1.70;;;0.80;;
48006;SDS011;33771;48.180;11.400;2022-09-27T08:29:00;1.43;;;0.70;;
48006;SDS011;33771;48.180;11.400;2022-09-27T08:31:26;2.60;;;0.80;;
48006;SDS011;33771;48.180;11.400;2022-09-27T08:33:51;1.47;;;0.70;;
48006;SDS011;33771;48.180;11.400;2022-09-27T08:36:17;2.73;;;0.70;;
48006;SDS011;33771;48.180;11.400;2022-09-27T08:38:47;1.27;;;0.73;;
48006;SDS011;33771;48.180;11.400;2022-09-27T08:47:10;3.80;;;1.00;;
48006;SDS011;33771;48.180;11.400;2022-09-27T08:49:49;5.13;;;0.88;;
48006;SDS011;33771;48.180;11.400;2022-09-27T08:52:41;2.67;;;0.70;;
48006;SDS011;33771;48.180;11.400;2022-09-27T08:57:53;2.08;;;0.70;;
48006;SDS011;33771;48.180;11.400;2022-09-27T09:00:21;1.85;;;0.90;;
48006;SDS011;33771;48.180;11.400;2022-09-27T09:02:47;1.88;;;0.77;;
48006;SDS011;33771;48.180;11.400;2022-09-27T09:05:18;1.60;;;0.80;;
48006;SDS011;33771;48.180;11.400;2022-09-27T09:13:40;2.67;;;0.98;;
48006;SDS011;33771;48.180;11.400;2022-09-27T09:16:24;3.67;;;0.90;;
48006;SDS011;33771;48.180;11.400;2022-09-27T09:21:56;1.45;;;0.73;;
48006;SDS011;33771;48.180;11.400;2022-09-27T09:24:42;1.98;;;0.90;;
48006;SDS011;33771;48.180;11.400;2022-09-27T09:35:54;2.45;;;0.80;;
48006;SDS011;33771;48.180;11.400;2022-09-27T09:38:47;1.20;;;0.85;;
48006;SDS011;33771;48.180;11.400;2022-09-27T09:41:25;1.30;;;0.65;;
48006;SDS011;33771;48.180;11.400;2022-09-27T09:43:57;1.08;;;0.68;;
48006;SDS011;33771;48.180;11.400;2022-09-27T09:51:39;1.05;;;0.50;;
48006;SDS011;33771;48.180;11.400;2022-09-27T10:00:23;0.52;;;0.50;;
48006;SDS011;33771;48.180;11.400;2022-09-27T10:02:49;1.27;;;0.70;;
48006;SDS011;33771;48.180;11.400;2022-09-27T10:05:18;0.70;;;0.40;;
48006;SDS011;33771;48.180;11.400;2022-09-27T10:07:46;1.40;;;0.70;;
48006;SDS011;33771;48.180;11.400;2022-09-27T10:10:14;0.85;;;0.60;;
48006;SDS011;33771;48.180;11.400;2022-09-27T10:12:42;1.60;;;0.60;;
48006;SDS011;33771;48.180;11.400;2022-09-27T10:15:12;1.88;;;0.60;;
48006;SDS011;33771;48.180;11.400;2022-09-27T10:17:51;3.70;;;0.55;;
48006;SDS011;33771;48.180;11.400;2022-09-27T10:20:44;1.05;;;0.68;;
48006;SDS011;33771;48.180;11.400;2022-09-27T10:23:20;0.88;;;0.63;;
48006;SDS011;33771;48.180;11.400;2022-09-27T10:30:57;3.75;;;0.90;;
48006;SDS011;33771;48.180;11.400;2022-09-27T10:34:04;0.90;;;0.50;;
48006;SDS011;33771;48.180;11.400;2022-09-27T10:36:30;1.27;;;0.50;;
48006;SDS011;33771;48.180;11.400;2022-09-27T10:38:59;2.28;;;0.65;;
48006;SDS011;33771;48.180;11.400;2022-09-27T10:41:33;2.30;;;0.60;;
48006;SDS011;33771;48.180;11.400;2022-09-27T10:46:44;1.40;;;0.80;;
48006;SDS011;33771;48.180;11.400;2022-09-27T10:51:48;1.67;;;0.80;;
48006;SDS011;33771;48.180;11.400;2022-09-27T10:54:24;1.30;;;0.60;;
48006;SDS011;33771;48.180;11.400;2022-09-27T10:59:35;1.50;;;0.73;;
48006;SDS011;33771;48.180;11.400;2022-09-27T11:02:03;1.17;;;0.77;;
48006;SDS011;33771;48.180;11.400;2022-09-27T11:04:31;2.25;;;0.90;;
48006;SDS011;33771;48.180;11.400;2022-09-27T11:07:12;1.77;;;0.98;;
48006;SDS011;33771;48.180;11.400;2022-09-27T11:09:52;2.78;;;1.00;;
48006;SDS011;33771;48.180;11.400;2022-09-27T11:12:26;2.80;;;0.70;;
48006;SDS011;33771;48.180;11.400;2022-09-27T11:15:02;1.63;;;0.90;;
48006;SDS011;33771;48.180;11.400;2022-09-27T11:17:33;2.80;;;1.30;;
48006;SDS011;33771;48.180;11.400;2022-09-27T11:30:43;1.55;;;0.80;;
48006;SDS011;33771;48.180;11.400;2022-09-27T11:39:12;1.33;;;0.70;;
48006;SDS011;33771;48.180;11.400;2022-09-27T11:48:34;1.30;;;0.70;;
48006;SDS011;33771;48.180;11.400;2022-09-27T11:53:43;1.48;;;0.80;;
48006;SDS011;33771;48.180;11.400;2022-09-27T12:09:44;1.92;;;0.80;;
48006;SDS011;33771;48.180;11.400;2022-09-27T12:12:24;1.83;;;1.00;;
48006;SDS011;33771;48.180;11.400;2022-09-27T12:14:55;1.40;;;0.95;;
48006;SDS011;33771;48.180;11.400;2022-09-27T12:17:27;2.13;;;1.00;;
48006;SDS011;33771;48.180;11.400;2022-09-27T12:19:57;1.27;;;0.70;;
48006;SDS011;33771;48.180;11.400;2022-09-27T12:22:34;6.72;;;0.90;;
48006;SDS011;33771;48.180;11.400;2022-09-27T12:25:10;1.02;;;0.75;;
48006;SDS011;33771;48.180;11.400;2022-09-27T12:27:48;3.85;;;0.80;;
48006;SDS011;33771;48.180;11.400;2022-09-27T12:30:21;1.77;;;0.80;;
48006;SDS011;33771;48.180;11.400;2022-09-27T12:32:51;0.80;;;0.80;;
48006;SDS011;33771;48.180;11.400;2022-09-27T12:35:27;2.78;;;1.50;;
48006;SDS011;33771;48.180;11.400;2022-09-27T12:40:43;1.48;;;0.95;;
48006;SDS011;33771;48.180;11.400;2022-09-27T12:43:17;1.55;;;0.90;;
48006;SDS011;33771;48.180;11.400;2022-09-27T12:48:45;2.30;;;1.13;;
48006;SDS011;33771;48.180;11.400;2022-09-27T12:51:21;1.63;;;1.08;;
48006;SDS011;33771;48.180;11.400;2022-09-27T13:12:51;2.40;;;1.05;;
48006;SDS011;33771;48.180;11.400;2022-09-27T13:15:24;1.38;;;0.68;;
48006;SDS011;33771;48.180;11.400;2022-09-27T13:17:54;1.77;;;0.70;;
48006;SDS011;33771;48.180;11.400;2022-09-27T13:22:54;2.25;;;0.90;;
48006;SDS011;33771;48.180;11.400;2022-09-27T13:25:45;1.38;;;0.75;;
48006;SDS011;33771;48.180;11.400;2022-09-27T13:31:14;0.93;;;0.55;;
48006;SDS011;33771;48.180;11.400;2022-09-27T13:38:51;0.57;;;0.52;;
48006;SDS011;33771;48.180;11.400;2022-09-27T13:41:33;3.10;;;0.68;;
48006;SDS011;33771;48.180;11.400;2022-09-27T13:52:14;2.65;;;0.73;;
48006;SDS011;33771;48.180;11.400;2022-09-27T13:54:52;4.07;;;1.27;;
48006;SDS011;33771;48.180;11.400;2022-09-27T14:00:04;1.73;;;0.80;;
48006;SDS011;33771;48.180;11.400;2022-09-27T14:02:35;3.17;;;1.00;;
48006;SDS011;33771;48.180;11.400;2022-09-27T14:05:25;2.13;;;0.75;;
48006;SDS011;33771;48.180;11.400;2022-09-27T14:08:02;7.22;;;2.63;;
48006;SDS011;33771;48.180;11.400;2022-09-27T14:10:29;3.03;;;1.00;;
48006;SDS011;33771;48.180;11.400;2022-09-27T14:12:56;1.45;;;0.80;;
48006;SDS011;33771;48.180;11.400;2022-09-27T14:15:24;0.60;;;0.55;;
48006;SDS011;33771;48.180;11.400;2022-09-27T14:17:54;0.75;;;0.60;;
48006;SDS011;33771;48.180;11.400;2022-09-27T14:23:40;2.88;;;0.82;;
48006;SDS011;33771;48.180;11.400;2022-09-27T14:25:58;1.88;;;0.70;;
48006;SDS011;33771;48.180;11.400;2022-09-27T14:28:25;1.80;;;0.95;;
48006;SDS011;33771;48.180;11.400;2022-09-27T14:33:49;2.92;;;0.98;;
48006;SDS011;33771;48.180;11.400;2022-09-27T14:36:24;1.40;;;0.80;;
48006;SDS011;33771;48.180;11.400;2022-09-27T14:39:19;3.38;;;1.00;;
48006;SDS011;33771;48.180;11.400;2022-09-27T14:41:46;2.28;;;0.70;;
48006;SDS011;33771;48.180;11.400;2022-09-27T14:44:13;5.97;;;0.95;;
48006;SDS011;33771;48.180;11.400;2022-09-27T14:46:41;2.33;;;1.00;;
48006;SDS011;33771;48.180;11.400;2022-09-27T14:49:20;4.53;;;0.93;;
48006;SDS011;33771;48.180;11.400;2022-09-27T14:51:51;2.47;;;0.90;;
48006;SDS011;33771;48.180;11.400;2022-09-27T14:54:22;3.00;;;1.10;;
48006;SDS011;33771;48.180;11.400;2022-09-27T14:56:50;1.83;;;1.02;;
48006;SDS011;33771;48.180;11.400;2022-09-27T14:59:30;1.80;;;1.00;;
48006;SDS011;33771;48.180;11.400;2022-09-27T15:02:01;2.38;;;0.90;;
48006;SDS011;33771;48.180;11.400;2022-09-27T15:04:41;1.85;;;0.90;;
48006;SDS011;33771;48.180;11.400;2022-09-27T15:07:10;3.35;;;1.30;;
48006;SDS011;33771;48.180;11.400;2022-09-27T15:09:39;5.55;;;1.23;;
48006;SDS011;33771;48.180;11.400;2022-09-27T15:12:05;1.55;;;1.10;;
48006;SDS011;33771;48.180;11.400;2022-09-27T15:14:32;3.70;;;1.25;;
48006;SDS011;33771;48.180;11.400;2022-09-27T15:17:04;2.97;;;1.10;;
48006;SDS011;33771;48.180;11.400;2022-09-27T15:19:38;1.92;;;0.95;;
48006;SDS011;33771;48.180;11.400;2022-09-27T15:22:22;1.33;;;0.90;;
48006;SDS011;33771;48.180;11.400;2022-09-27T15:25:19;3.55;;;1.10;;
48006;SDS011;33771;48.180;11.400;2022-09-27T15:27:50;1.45;;;0.90;;
48006;SDS011;33771;48.180;11.400;2022-09-27T15:30:20;2.75;;;1.20;;
48006;SDS011;33771;48.180;11.400;2022-09-27T15:33:06;3.67;;;1.20;;
48006;SDS011;33771;48.180;11.400;2022-09-27T15:35:46;2.28;;;1.10;;
48006;SDS011;33771;48.180;11.400;2022-09-27T15:38:24;3.43;;;1.10;;
48006;SDS011;33771;48.180;11.400;2022-09-27T15:41:01;4.03;;;1.00;;
48006;SDS011;33771;48.180;11.400;2022-09-27T15:43:30;6.18;;;1.45;;
48006;SDS011;33771;48.180;11.400;2022-09-27T15:46:01;3.60;;;1.23;;
48006;SDS011;33771;48.180;11.400;2022-09-27T15:48:39;2.67;;;1.10;;
48006;SDS011;33771;48.180;11.400;2022-09-27T15:51:20;4.03;;;1.20;;
48006;SDS011;33771;48.180;11.400;2022-09-27T15:54:03;7.40;;;1.30;;
48006;SDS011;33771;48.180;11.400;2022-09-27T15:56:28;7.10;;;1.60;;
48006;SDS011;33771;48.180;11.400;2022-09-27T15:58:54;4.10;;;1.30;;
48006;SDS011;33771;48.180;11.400;2022-09-27T16:01:19;2.43;;;1.20;;
48006;SDS011;33771;48.180;11.400;2022-09-27T16:03:45;4.20;;;1.13;;
48006;SDS011;33771;48.180;11.400;2022-09-27T16:06:11;4.13;;;1.30;;
48006;SDS011;33771;48.180;11.400;2022-09-27T16:08:38;2.50;;;1.23;;
48006;SDS011;33771;48.180;11.400;2022-09-27T16:11:03;2.80;;;1.50;;
48006;SDS011;33771;48.180;11.400;2022-09-27T16:13:29;3.70;;;1.43;;
48006;SDS011;33771;48.180;11.400;2022-09-27T16:15:55;8.00;;;1.50;;
48006;SDS011;33771;48.180;11.400;2022-09-27T16:18:22;3.63;;;1.73;;
48006;SDS011;33771;48.180;11.400;2022-09-27T16:20:47;5.10;;;2.00;;
48006;SDS011;33771;48.180;11.400;2022-09-27T16:23:13;4.60;;;2.07;;
48006;SDS011;33771;48.180;11.400;2022-09-27T16:25:38;4.93;;;1.97;;
48006;SDS011;33771;48.180;11.400;2022-09-27T16:28:04;4.47;;;1.70;;
48006;SDS011;33771;48.180;11.400;2022-09-27T16:30:30;8.23;;;2.57;;
48006;SDS011;33771;48.180;11.400;2022-09-27T16:32:56;6.03;;;3.20;;
48006;SDS011;33771;48.180;11.400;2022-09-27T16:35:23;4.93;;;3.20;;
48006;SDS011;33771;48.180;11.400;2022-09-27T16:37:49;8.93;;;4.13;;
48006;SDS011;33771;48.180;11.400;2022-09-27T16:40:15;7.73;;;3.87;;
48006;SDS011;33771;48.180;11.400;2022-09-27T16:42:44;4.93;;;3.50;;
48006;SDS011;33771;48.180;11.400;2022-09-27T16:45:13;7.00;;;3.20;;
48006;SDS011;33771;48.180;11.400;2022-09-27T16:47:42;7.53;;;4.80;;
48006;SDS011;33771;48.180;11.400;2022-09-27T16:50:09;6.40;;;3.80;;
48006;SDS011;33771;48.180;11.400;2022-09-27T16:52:55;7.57;;;3.70;;
48006;SDS011;33771;48.180;11.400;2022-09-27T16:55:21;6.43;;;3.30;;
48006;SDS011;33771;48.180;11.400;2022-09-27T16:57:47;7.83;;;2.67;;
48006;SDS011;33771;48.180;11.400;2022-09-27T17:00:13;5.60;;;2.40;;
48006;SDS011;33771;48.180;11.400;2022-09-27T17:02:39;4.80;;;2.37;;
48006;SDS011;33771;48.180;11.400;2022-09-27T17:05:05;3.43;;;1.77;;
48006;SDS011;33771;48.180;11.400;2022-09-27T17:07:31;6.07;;;2.33;;
48006;SDS011;33771;48.180;11.400;2022-09-27T17:09:56;5.13;;;1.70;;
48006;SDS011;33771;48.180;11.400;2022-09-27T17:12:22;3.97;;;1.83;;
48006;SDS011;33771;48.180;11.400;2022-09-27T17:14:48;2.97;;;1.67;;
48006;SDS011;33771;48.180;11.400;2022-09-27T17:17:14;3.20;;;1.50;;
48006;SDS011;33771;48.180;11.400;2022-09-27T17:19:39;2.80;;;1.50;;
48006;SDS011;33771;48.180;11.400;2022-09-27T17:22:05;2.00;;;1.17;;
48006;SDS011;33771;48.180;11.400;2022-09-27T17:24:31;2.47;;;1.20;;
48006;SDS011;33771;48.180;11.400;2022-09-27T17:26:57;6.33;;;1.37;;
48006;SDS011;33771;48.180;11.400;2022-09-27T17:29:22;3.57;;;2.07;;
48006;SDS011;33771;48.180;11.400;2022-09-27T17:31:49;1.67;;;1.10;;
48006;SDS011;33771;48.180;11.400;2022-09-27T17:34:14;3.97;;;1.60;;
48006;SDS011;33771;48.180;11.400;2022-09-27T17:36:41;2.37;;;1.20;;
48006;SDS011;33771;48.180;11.400;2022-09-27T17:39:12;3.30;;;1.30;;
48006;SDS011;33771;48.180;11.400;2022-09-27T17:41:39;6.13;;;2.17;;
48006;SDS011;33771;48.180;11.400;2022-09-27T17:44:04;3.87;;;1.43;;
48006;SDS011;33771;48.180;11.400;2022-09-27T17:46:32;4.70;;;1.50;;
48006;SDS011;33771;48.180;11.400;2022-09-27T17:48:59;3.70;;;1.50;;
48006;SDS011;33771;48.180;11.400;2022-09-27T17:51:47;2.88;;;1.48;;